Time;durP1;ratioP1;P1;durP2;ratioP2;P2;SDS_P1;SDS_P2;PMS_P1;PMS_P2;Temp;Humidity;BMP_temperature;BMP_pressure;BME280_temperature;BME280_humidity;BME280_pressure;Samples;Min_cycle;Max_cycle;Signal;HPM_P1;HPM_P2
2023/05/31 00:01:06;;;;;;;6.63;6.03;;;18.60;60.00;;;;;;5095044;28;20454;-56
2023/05/31 00:03:33;;;;;;;6.57;5.90;;;18.60;60.20;;;;;;5095050;28;20477;-56
2023/05/31 00:06:01;;;;;;;8.80;6.60;;;18.50;60.20;;;;;;5095602;28;20488;-56
2023/05/31 00:08:28;;;;;;;8.30;6.70;;;18.50;60.50;;;;;;5094827;28;20801;-56
2023/05/31 00:10:54;;;;;;;7.47;6.67;;;18.40;60.50;;;;;;5094473;28;20988;-56
2023/05/31 00:13:21;;;;;;;6.90;6.20;;;18.40;60.80;;;;;;5094341;28;20859;-56
2023/05/31 00:15:48;;;;;;;7.30;6.60;;;18.30;61.00;;;;;;5095533;28;20464;-56
2023/05/31 00:18:15;;;;;;;7.43;6.43;;;18.30;61.40;;;;;;5094878;28;20444;-56
2023/05/31 00:20:41;;;;;;;10.40;6.43;;;18.30;61.60;;;;;;5095093;28;20448;-56
2023/05/31 00:23:10;;;;;;;7.40;6.70;;;18.20;61.60;;;;;;5094746;28;20824;-56
2023/05/31 00:25:36;;;;;;;7.17;6.47;;;18.10;61.60;;;;;;5094140;28;20570;-56
2023/05/31 00:28:03;;;;;;;8.00;7.20;;;18.10;62.10;;;;;;5094556;28;20447;-56
2023/05/31 00:30:30;;;;;;;8.63;6.80;;;18.10;62.50;;;;;;5094497;28;20517;-56
2023/05/31 00:32:56;;;;;;;7.50;6.43;;;18.00;62.50;;;;;;5094156;28;20870;-56
2023/05/31 00:35:23;;;;;;;9.30;6.50;;;18.00;62.80;;;;;;5094046;28;20889;-56
2023/05/31 00:37:50;;;;;;;7.80;7.00;;;17.90;63.10;;;;;;5094465;28;20451;-56
2023/05/31 00:40:18;;;;;;;8.17;7.00;;;17.90;63.30;;;;;;5094290;28;20448;-56
2023/05/31 00:42:45;;;;;;;7.57;6.80;;;17.90;63.60;;;;;;5094273;28;20455;-56
2023/05/31 00:45:12;;;;;;;9.63;7.90;;;17.80;63.80;;;;;;5094592;28;20455;-56
2023/05/31 00:47:39;;;;;;;8.87;7.30;;;17.80;64.00;;;;;;5094249;28;20493;-56
2023/05/31 00:50:07;;;;;;;7.20;6.50;;;17.80;64.30;;;;;;5094252;28;20455;-56
2023/05/31 00:52:35;;;;;;;8.10;7.30;;;17.80;64.30;;;;;;5094231;28;20448;-56
2023/05/31 00:55:03;;;;;;;10.57;7.70;;;17.70;64.20;;;;;;5094021;28;20443;-56
2023/05/31 00:57:31;;;;;;;8.30;7.33;;;17.70;64.60;;;;;;5093957;28;20451;-56
2023/05/31 00:59:58;;;;;;;8.70;7.77;;;17.70;64.80;;;;;;5093954;28;20444;-56
2023/05/31 01:02:25;;;;;;;8.07;7.30;;;17.60;65.20;;;;;;5094076;28;20489;-56
2023/05/31 01:04:52;;;;;;;7.90;7.10;;;17.50;65.30;;;;;;5093940;28;20448;-56
2023/05/31 01:07:19;;;;;;;7.73;7.00;;;17.50;65.60;;;;;;5093933;28;20526;-56
2023/05/31 01:09:46;;;;;;;8.10;6.90;;;17.50;66.10;;;;;;5093917;28;20452;-56
2023/05/31 01:12:22;;;;;;;9.03;7.70;;;17.50;66.20;;;;;;5093610;28;20455;-56
2023/05/31 01:15:01;;;;;;;10.00;8.57;;;17.50;66.50;;;;;;5093818;28;20515;-56
2023/05/31 01:17:34;;;;;;;7.87;7.07;;;17.50;66.90;;;;;;5093796;28;20459;-56
2023/05/31 01:20:08;;;;;;;9.20;8.30;;;17.50;67.00;;;;;;5093372;28;20424;-56
2023/05/31 01:22:50;;;;;;;8.70;7.50;;;17.40;66.80;;;;;;5093484;28;20599;-56
2023/05/31 01:25:31;;;;;;;8.70;7.80;;;17.40;67.00;;;;;;5093308;28;20474;-56
2023/05/31 01:28:00;;;;;;;8.67;7.10;;;17.40;66.90;;;;;;5093626;28;20794;-56
2023/05/31 01:30:29;;;;;;;10.83;7.77;;;17.40;67.20;;;;;;5093585;28;20448;-56
2023/05/31 01:32:58;;;;;;;8.20;7.43;;;17.30;67.30;;;;;;5093650;28;20475;-56
2023/05/31 01:35:25;;;;;;;8.30;7.40;;;17.30;67.60;;;;;;5093435;28;20460;-56
2023/05/31 01:37:51;;;;;;;11.47;8.53;;;17.30;67.60;;;;;;5093262;28;20578;-56
2023/05/31 01:40:18;;;;;;;9.97;8.50;;;17.30;67.80;;;;;;5093565;28;20513;-56
2023/05/31 01:42:46;;;;;;;9.17;7.50;;;17.20;68.00;;;;;;5093413;28;20452;-56
2023/05/31 01:45:15;;;;;;;11.13;8.50;;;17.20;68.10;;;;;;5092983;28;20941;-56
2023/05/31 01:47:45;;;;;;;11.33;7.93;;;17.20;68.10;;;;;;5092975;28;20992;-56
2023/05/31 01:50:14;;;;;;;9.93;8.70;;;17.10;68.30;;;;;;5093326;28;20447;-56
2023/05/31 01:52:41;;;;;;;8.50;7.63;;;17.10;68.60;;;;;;5093399;28;20649;-56
2023/05/31 01:55:08;;;;;;;10.03;7.90;;;17.10;68.60;;;;;;5093296;28;20856;-56
2023/05/31 01:57:39;;;;;;;9.90;8.60;;;17.10;68.80;;;;;;5093312;28;20814;-56
2023/05/31 02:00:11;;;;;;;12.30;9.17;;;17.00;69.00;;;;;;5093424;28;20460;-56
2023/05/31 02:02:40;;;;;;;9.07;7.87;;;17.00;69.00;;;;;;5093249;28;20428;-56
2023/05/31 02:05:08;;;;;;;10.47;8.80;;;16.90;69.00;;;;;;5093080;28;20439;-56
2023/05/31 02:07:36;;;;;;;9.43;8.63;;;16.90;69.00;;;;;;5093081;28;20475;-56
2023/05/31 02:10:03;;;;;;;9.07;8.10;;;16.90;69.20;;;;;;5092868;28;20945;-56
2023/05/31 02:12:30;;;;;;;9.40;8.50;;;16.80;69.20;;;;;;5093176;28;20456;-56
2023/05/31 02:14:56;;;;;;;9.50;8.33;;;16.80;69.50;;;;;;5092676;28;20957;-56
2023/05/31 02:17:24;;;;;;;10.10;8.80;;;16.80;69.70;;;;;;5093019;28;20455;-56
2023/05/31 02:19:53;;;;;;;9.40;8.50;;;16.70;69.60;;;;;;5093113;28;20937;-56
2023/05/31 02:22:20;;;;;;;9.33;8.33;;;16.80;70.00;;;;;;5093062;28;20476;-56
2023/05/31 02:24:47;;;;;;;9.20;7.97;;;16.70;70.00;;;;;;5093065;28;20443;-56
2023/05/31 02:27:14;;;;;;;11.00;8.40;;;16.60;69.90;;;;;;5092568;28;20494;-56
2023/05/31 02:29:41;;;;;;;10.83;8.50;;;16.70;70.10;;;;;;5092918;28;20451;-56
2023/05/31 02:32:08;;;;;;;9.97;8.50;;;16.60;70.10;;;;;;5092708;28;20969;-56
2023/05/31 02:34:36;;;;;;;11.13;8.73;;;16.60;70.30;;;;;;5093935;28;20451;-56
2023/05/31 02:37:04;;;;;;;10.80;8.97;;;16.60;70.50;;;;;;5097042;28;20545;-56
2023/05/31 02:39:31;;;;;;;8.57;7.77;;;16.60;70.50;;;;;;5096683;28;20941;-56
2023/05/31 02:41:58;;;;;;;9.80;8.87;;;16.50;70.50;;;;;;5096633;28;20949;-56
2023/05/31 02:44:24;;;;;;;9.97;8.33;;;16.50;70.60;;;;;;5096476;28;20933;-56
2023/05/31 02:46:51;;;;;;;9.87;8.87;;;16.50;70.60;;;;;;5096567;28;20827;-56
2023/05/31 02:49:18;;;;;;;10.07;8.77;;;16.50;70.60;;;;;;5096731;28;20451;-56
2023/05/31 02:51:44;;;;;;;10.13;9.10;;;16.40;70.60;;;;;;5096731;28;20477;-56
2023/05/31 02:54:13;;;;;;;11.10;9.90;;;16.40;70.60;;;;;;5096689;28;20818;-56
2023/05/31 02:56:39;;;;;;;10.50;9.57;;;16.40;70.80;;;;;;5096145;28;20459;-56
2023/05/31 02:59:06;;;;;;;10.00;9.00;;;16.30;71.00;;;;;;5096311;28;20440;-56
2023/05/31 03:01:33;;;;;;;10.77;8.50;;;16.30;71.00;;;;;;5096213;28;20474;-56
2023/05/31 03:04:00;;;;;;;9.87;8.87;;;16.20;70.90;;;;;;5097328;28;20481;-56
2023/05/31 03:06:27;;;;;;;10.23;9.20;;;16.20;71.40;;;;;;5097728;28;20988;-56
2023/05/31 03:08:53;;;;;;;9.93;8.90;;;16.20;71.60;;;;;;5098081;28;20549;-56
2023/05/31 03:11:21;;;;;;;11.97;9.10;;;16.10;71.70;;;;;;5096121;28;20524;-56
2023/05/31 03:13:48;;;;;;;9.73;8.57;;;16.10;71.80;;;;;;5096241;28;20509;-56
2023/05/31 03:16:16;;;;;;;9.60;8.60;;;16.10;71.70;;;;;;5095895;28;20989;-56
2023/05/31 03:18:43;;;;;;;11.37;9.90;;;16.10;71.70;;;;;;5096404;28;20454;-56
2023/05/31 03:21:09;;;;;;;10.47;9.37;;;16.00;71.80;;;;;;5096921;28;20821;-56
2023/05/31 03:23:36;;;;;;;11.50;10.40;;;16.00;72.00;;;;;;5096351;28;20451;-56
2023/05/31 03:26:03;;;;;;;11.70;10.50;;;16.00;72.40;;;;;;5096152;28;20468;-56
2023/05/31 03:28:31;;;;;;;11.00;9.60;;;15.90;72.40;;;;;;5095944;28;20443;-56
2023/05/31 03:30:57;;;;;;;10.70;9.70;;;15.90;72.50;;;;;;5095371;28;20831;-56
2023/05/31 03:33:24;;;;;;;11.40;10.30;;;15.90;72.70;;;;;;5095466;28;20501;-56
2023/05/31 03:35:51;;;;;;;11.43;10.23;;;15.80;72.90;;;;;;5095695;28;20875;-56
2023/05/31 03:38:17;;;;;;;10.93;9.83;;;15.80;73.10;;;;;;5095816;28;20436;-56
2023/05/31 03:40:45;;;;;;;11.57;10.50;;;15.80;73.40;;;;;;5095758;28;20446;-56
2023/05/31 03:43:11;;;;;;;11.57;9.60;;;15.70;73.50;;;;;;5096642;28;20550;-56
2023/05/31 03:45:39;;;;;;;10.20;9.20;;;15.80;73.60;;;;;;5095415;28;20536;-56
2023/05/31 03:48:06;;;;;;;17.37;10.60;;;15.70;73.60;;;;;;5094832;28;20483;-56
2023/05/31 03:50:33;;;;;;;10.63;9.53;;;15.70;73.70;;;;;;5095177;28;20451;-56
2023/05/31 03:52:59;;;;;;;11.70;9.73;;;15.70;73.70;;;;;;5095423;28;20455;-56
2023/05/31 03:55:26;;;;;;;12.83;10.70;;;15.70;74.00;;;;;;5095694;28;20474;-56
2023/05/31 03:57:53;;;;;;;12.23;10.90;;;15.70;74.00;;;;;;5095457;28;20436;-56
2023/05/31 04:00:20;;;;;;;11.80;10.60;;;15.70;73.90;;;;;;5095172;28;20931;-56
2023/05/31 04:02:48;;;;;;;13.20;9.93;;;15.70;74.20;;;;;;5095226;28;20443;-56
2023/05/31 04:05:14;;;;;;;13.17;10.63;;;15.70;74.50;;;;;;5094666;28;20960;-56
2023/05/31 04:07:42;;;;;;;11.57;10.37;;;15.60;74.80;;;;;;5095024;28;20498;-56
2023/05/31 04:10:09;;;;;;;13.20;10.80;;;15.70;75.00;;;;;;5095171;28;20455;-56
2023/05/31 04:12:36;;;;;;;11.50;10.40;;;15.70;75.30;;;;;;5094829;28;20463;-56
2023/05/31 04:15:03;;;;;;;11.13;9.90;;;15.70;75.30;;;;;;5094769;28;20455;-55
2023/05/31 04:17:30;;;;;;;13.00;11.60;;;15.70;75.30;;;;;;5094493;28;20941;-56
2023/05/31 04:19:58;;;;;;;12.10;10.90;;;15.70;75.60;;;;;;5094615;28;20459;-56
2023/05/31 04:22:25;;;;;;;12.93;11.30;;;15.60;75.90;;;;;;5094785;28;20459;-56
2023/05/31 04:24:51;;;;;;;11.97;10.73;;;15.60;76.20;;;;;;5094652;28;20501;-56
2023/05/31 04:27:19;;;;;;;14.13;11.47;;;15.70;76.20;;;;;;5094447;28;20494;-56
2023/05/31 04:29:46;;;;;;;13.40;11.60;;;15.70;76.20;;;;;;5094676;28;20479;-56
2023/05/31 04:32:14;;;;;;;13.30;11.17;;;15.60;76.50;;;;;;5094267;28;20444;-56
2023/05/31 04:34:41;;;;;;;13.03;10.60;;;15.60;76.80;;;;;;5094560;28;20467;-56
2023/05/31 04:37:10;;;;;;;14.53;11.53;;;15.60;77.30;;;;;;5094347;28;20470;-55
2023/05/31 04:39:37;;;;;;;14.00;11.47;;;15.60;77.80;;;;;;5094702;28;20455;-56
2023/05/31 04:42:05;;;;;;;12.87;11.57;;;15.70;78.30;;;;;;5094322;28;20451;-56
2023/05/31 04:44:32;;;;;;;15.47;11.90;;;15.70;78.60;;;;;;5094271;28;20505;-56
2023/05/31 04:46:59;;;;;;;12.67;11.37;;;15.70;79.80;;;;;;5094049;28;20527;-56
2023/05/31 04:49:27;;;;;;;13.30;11.77;;;15.70;79.50;;;;;;5094260;28;20492;-56
2023/05/31 04:51:53;;;;;;;13.77;12.37;;;15.70;79.90;;;;;;5094204;28;20835;-56
2023/05/31 04:54:21;;;;;;;15.93;12.07;;;15.70;80.00;;;;;;5094105;28;20448;-56
2023/05/31 04:56:48;;;;;;;13.63;12.17;;;15.70;80.30;;;;;;5093676;28;20883;-56
2023/05/31 04:59:15;;;;;;;15.17;13.53;;;15.80;80.70;;;;;;5094081;28;20455;-56
2023/05/31 05:01:42;;;;;;;13.63;12.23;;;15.80;81.40;;;;;;5093940;28;20458;-56
2023/05/31 05:04:08;;;;;;;13.20;11.90;;;15.80;81.90;;;;;;5093940;28;20452;-56
2023/05/31 05:06:37;;;;;;;15.13;12.13;;;15.80;82.10;;;;;;5093906;28;20468;-56
2023/05/31 05:09:04;;;;;;;13.53;12.13;;;15.90;82.40;;;;;;5093821;28;20448;-56
2023/05/31 05:11:32;;;;;;;13.37;11.97;;;15.90;82.70;;;;;;5093457;28;20950;-56
2023/05/31 05:13:59;;;;;;;14.00;12.60;;;16.00;83.10;;;;;;5094059;28;20439;-56
2023/05/31 05:16:26;;;;;;;13.67;12.00;;;16.00;83.30;;;;;;5093720;28;20460;-56
2023/05/31 05:18:52;;;;;;;14.30;12.80;;;16.10;83.30;;;;;;5093657;28;20543;-56
2023/05/31 05:21:19;;;;;;;14.27;12.77;;;16.10;83.80;;;;;;5093835;28;20451;-56
2023/05/31 05:23:46;;;;;;;13.47;11.93;;;16.20;84.10;;;;;;5093365;28;20941;-56
2023/05/31 05:26:13;;;;;;;12.33;11.10;;;16.20;84.30;;;;;;5093320;28;20988;-56
2023/05/31 05:28:41;;;;;;;13.10;11.70;;;16.30;84.20;;;;;;5094153;28;20487;-56
2023/05/31 05:31:08;;;;;;;15.00;12.47;;;16.40;83.90;;;;;;5093549;28;20454;-56
2023/05/31 05:33:35;;;;;;;13.20;11.90;;;16.40;83.70;;;;;;5093596;28;20447;-56
2023/05/31 05:36:02;;;;;;;12.90;11.33;;;16.50;84.20;;;;;;5093461;28;20464;-56
2023/05/31 05:38:28;;;;;;;18.67;11.57;;;16.60;84.10;;;;;;5093338;28;20964;-56
2023/05/31 05:40:55;;;;;;;12.40;11.10;;;16.70;84.10;;;;;;5094020;28;20448;-56
2023/05/31 05:43:22;;;;;;;14.13;11.50;;;16.80;83.80;;;;;;5093100;28;20964;-56
2023/05/31 05:45:50;;;;;;;13.43;11.40;;;16.80;83.60;;;;;;5093591;28;20468;-56
2023/05/31 05:48:17;;;;;;;16.10;12.07;;;16.90;83.50;;;;;;5093084;28;20484;-56
2023/05/31 05:50:44;;;;;;;12.83;11.53;;;17.00;83.30;;;;;;5093390;28;20501;-56
2023/05/31 05:53:10;;;;;;;14.17;10.83;;;17.00;83.50;;;;;;5093423;28;20447;-56
2023/05/31 05:55:38;;;;;;;13.50;12.20;;;17.10;83.60;;;;;;5093047;28;20472;-56
2023/05/31 05:58:04;;;;;;;21.27;12.20;;;17.20;83.70;;;;;;5093220;28;20475;-56
2023/05/31 06:00:32;;;;;;;11.57;10.37;;;17.20;83.60;;;;;;5093252;28;20447;-56
2023/05/31 06:03:00;;;;;;;14.33;10.60;;;17.30;83.40;;;;;;5093114;28;20452;-56
2023/05/31 06:05:28;;;;;;;11.80;9.27;;;17.30;83.20;;;;;;5093100;28;20463;-56
2023/05/31 06:07:55;;;;;;;11.63;10.20;;;17.40;83.20;;;;;;5092875;28;20480;-56
2023/05/31 06:10:21;;;;;;;14.90;10.67;;;17.50;82.80;;;;;;5095110;28;20483;-57
2023/05/31 06:12:48;;;;;;;10.80;9.70;;;17.60;82.60;;;;;;5097278;28;20428;-56
2023/05/31 06:15:15;;;;;;;10.87;9.77;;;17.60;82.30;;;;;;5096835;28;20455;-56
2023/05/31 06:17:43;;;;;;;10.80;9.30;;;17.70;81.60;;;;;;5097229;28;20487;-56
2023/05/31 06:20:11;;;;;;;10.13;9.03;;;17.90;81.80;;;;;;5097276;28;20564;-56
2023/05/31 06:22:38;;;;;;;12.47;9.90;;;18.00;81.40;;;;;;5097378;28;20448;-56
2023/05/31 06:25:05;;;;;;;11.90;9.90;;;18.10;80.80;;;;;;5097754;28;20459;-56
2023/05/31 06:27:32;;;;;;;12.40;9.97;;;18.20;80.50;;;;;;5097122;28;20510;-56
2023/05/31 06:29:59;;;;;;;12.77;10.77;;;18.40;81.50;;;;;;5096951;28;20452;-56
2023/05/31 06:32:26;;;;;;;14.63;10.00;;;18.50;79.80;;;;;;5096598;28;20953;-56
2023/05/31 06:34:53;;;;;;;9.70;8.70;;;18.60;79.30;;;;;;5097070;28;20489;-56
2023/05/31 06:37:21;;;;;;;15.67;9.20;;;18.80;78.70;;;;;;5096727;28;20492;-56
2023/05/31 06:39:48;;;;;;;12.20;8.67;;;18.90;77.90;;;;;;5097545;28;20475;-56
2023/05/31 06:42:15;;;;;;;9.57;8.10;;;19.00;77.50;;;;;;5096666;28;20451;-56
2023/05/31 06:44:42;;;;;;;9.77;8.20;;;19.20;76.30;;;;;;5096618;28;20447;-57
2023/05/31 06:47:09;;;;;;;10.20;9.13;;;19.30;75.60;;;;;;5096514;28;20506;-57
2023/05/31 06:49:36;;;;;;;11.77;8.40;;;19.40;75.90;;;;;;5096565;28;20480;-56
2023/05/31 06:52:03;;;;;;;9.30;8.40;;;19.60;75.70;;;;;;5096180;28;20452;-57
2023/05/31 06:54:37;;;;;;;8.40;7.60;;;19.80;74.60;;;;;;5096200;28;20872;-57
2023/05/31 06:57:04;;;;;;;7.50;6.70;;;20.00;73.00;;;;;;5097220;28;20471;-56
2023/05/31 06:59:30;;;;;;;8.70;7.80;;;20.20;71.70;;;;;;5096286;28;20448;-56
2023/05/31 07:01:57;;;;;;;8.90;8.00;;;20.30;71.50;;;;;;5096298;28;20505;-57
2023/05/31 07:04:24;;;;;;;12.90;7.83;;;20.50;70.90;;;;;;5096231;28;20496;-57
2023/05/31 07:06:51;;;;;;;7.80;6.97;;;20.70;70.80;;;;;;5096170;28;20463;-56
2023/05/31 07:09:17;;;;;;;7.90;7.10;;;20.80;69.40;;;;;;5095881;28;20479;-57
2023/05/31 07:11:45;;;;;;;7.23;6.60;;;21.00;68.70;;;;;;5095861;28;20833;-56
2023/05/31 07:14:12;;;;;;;10.63;7.60;;;21.20;67.90;;;;;;5096031;28;20452;-57
2023/05/31 07:16:39;;;;;;;7.80;7.00;;;21.40;66.90;;;;;;5096785;28;20471;-56
2023/05/31 07:19:06;;;;;;;9.63;7.57;;;21.60;65.80;;;;;;5096025;28;20448;-57
2023/05/31 07:21:32;;;;;;;10.50;5.80;;;21.80;65.40;;;;;;5094444;28;20805;-57
2023/05/31 07:23:59;;;;;;;8.27;6.43;;;22.00;64.40;;;;;;5095585;28;20942;-57
2023/05/31 07:26:26;;;;;;;7.83;5.23;;;22.20;63.20;;;;;;5095966;28;20468;-57
2023/05/31 07:28:54;;;;;;;10.23;6.37;;;22.40;62.30;;;;;;5095681;28;20554;-57
2023/05/31 07:31:21;;;;;;;14.00;6.10;;;22.60;61.60;;;;;;5095605;28;20849;-57
2023/05/31 07:33:47;;;;;;;12.43;7.03;;;22.90;60.70;;;;;;5095686;28;20451;-57
2023/05/31 07:36:15;;;;;;;7.07;5.73;;;23.00;59.50;;;;;;5095686;28;20541;-57
2023/05/31 07:38:42;;;;;;;8.03;4.63;;;23.20;58.80;;;;;;5095558;28;20945;-57
2023/05/31 07:41:08;;;;;;;9.27;6.90;;;23.30;58.90;;;;;;5095733;28;20443;-57
2023/05/31 07:43:36;;;;;;;9.43;7.20;;;23.60;58.20;;;;;;5095419;28;20505;-57
2023/05/31 07:46:04;;;;;;;8.63;5.10;;;23.70;57.60;;;;;;5095366;28;20505;-57
2023/05/31 07:48:33;;;;;;;11.97;6.50;;;23.80;56.90;;;;;;5095298;28;20487;-57
2023/05/31 07:51:00;;;;;;;6.63;6.03;;;24.00;56.70;;;;;;5095269;28;20531;-57
2023/05/31 07:53:26;;;;;;;8.70;5.60;;;24.10;56.70;;;;;;5095500;28;20452;-57
2023/05/31 07:55:53;;;;;;;4.57;4.17;;;24.20;55.20;;;;;;5094914;28;20470;-57
2023/05/31 07:58:20;;;;;;;8.23;5.97;;;24.40;55.00;;;;;;5095241;28;20479;-57
2023/05/31 08:00:47;;;;;;;7.30;5.07;;;24.60;55.00;;;;;;5095176;28;20475;-57
2023/05/31 08:03:15;;;;;;;7.03;4.50;;;24.80;54.90;;;;;;5095155;28;20567;-57
2023/05/31 08:05:42;;;;;;;6.70;5.07;;;25.00;54.50;;;;;;5094699;28;21004;-57
2023/05/31 08:08:09;;;;;;;6.40;4.90;;;25.20;54.10;;;;;;5094993;28;20479;-57
2023/05/31 08:10:35;;;;;;;6.50;4.37;;;25.40;53.10;;;;;;5094865;28;20448;-57
2023/05/31 08:13:02;;;;;;;5.40;4.50;;;25.70;52.40;;;;;;5094944;28;20432;-57
2023/05/31 08:15:29;;;;;;;5.90;4.33;;;25.90;51.20;;;;;;5094737;28;20474;-57
2023/05/31 08:17:56;;;;;;;5.67;4.50;;;26.10;51.00;;;;;;5094466;28;20937;-57
2023/05/31 08:20:24;;;;;;;5.90;4.80;;;26.30;51.10;;;;;;5094751;28;20534;-57
2023/05/31 08:22:52;;;;;;;7.73;4.87;;;26.50;50.50;;;;;;5095505;28;20501;-57
2023/05/31 08:25:19;;;;;;;5.53;4.13;;;26.70;50.00;;;;;;5094656;28;20558;-57
2023/05/31 08:27:46;;;;;;;7.70;6.00;;;26.90;48.90;;;;;;5094327;28;20515;-57
2023/05/31 08:30:13;;;;;;;5.90;4.57;;;27.00;48.90;;;;;;5094533;28;20440;-57
2023/05/31 08:32:40;;;;;;;6.33;3.90;;;27.20;48.30;;;;;;5094212;28;20501;-57
2023/05/31 08:35:08;;;;;;;5.47;4.53;;;27.40;47.70;;;;;;5094403;28;20481;-57
2023/05/31 08:37:37;;;;;;;8.63;4.37;;;27.60;47.20;;;;;;5094099;28;20478;-57
2023/05/31 08:40:05;;;;;;;5.80;4.17;;;27.70;46.70;;;;;;5094337;28;20447;-57
2023/05/31 08:42:39;;;;;;;4.17;3.53;;;27.90;46.40;;;;;;5094369;28;20491;-57
2023/05/31 08:45:07;;;;;;;5.30;4.67;;;28.10;46.40;;;;;;5094285;28;20424;-57
2023/05/31 08:47:39;;;;;;;6.10;4.50;;;28.30;46.30;;;;;;5093805;28;20448;-57
2023/05/31 08:50:07;;;;;;;5.47;4.40;;;28.50;44.90;;;;;;5093952;28;20971;-57
2023/05/31 08:52:35;;;;;;;4.20;3.10;;;28.60;44.40;;;;;;5094137;28;20447;-57
2023/05/31 08:55:03;;;;;;;5.00;4.30;;;28.80;44.00;;;;;;5094044;28;20448;-57
2023/05/31 08:57:31;;;;;;;5.17;3.53;;;28.90;43.20;;;;;;5094159;28;20451;-55
2023/05/31 08:59:59;;;;;;;8.20;3.30;;;29.10;42.40;;;;;;5094361;28;20496;-55
2023/05/31 09:02:26;;;;;;;5.53;3.60;;;29.30;42.40;;;;;;5093896;28;20964;-55
2023/05/31 09:04:53;;;;;;;6.20;3.90;;;29.50;42.00;;;;;;5094132;28;20452;-55
2023/05/31 09:07:19;;;;;;;4.80;3.70;;;29.80;41.30;;;;;;5093637;28;20991;-57
2023/05/31 09:09:47;;;;;;;4.50;3.63;;;30.00;41.00;;;;;;5093800;28;20489;-55
2023/05/31 09:12:16;;;;;;;4.20;3.57;;;30.30;41.00;;;;;;5093844;28;20469;-55
2023/05/31 09:14:43;;;;;;;5.93;3.67;;;30.50;40.40;;;;;;5093493;28;20500;-55
2023/05/31 09:17:09;;;;;;;5.23;3.47;;;30.60;39.40;;;;;;5093318;28;20981;-55
2023/05/31 09:19:41;;;;;;;6.70;3.30;;;30.80;39.70;;;;;;5093709;28;20443;-55
2023/05/31 09:22:08;;;;;;;6.90;3.20;;;31.00;39.50;;;;;;5093816;28;20431;-55
2023/05/31 09:24:34;;;;;;;6.43;3.00;;;31.10;36.00;;;;;;5093773;28;20821;-55
2023/05/31 09:27:03;;;;;;;10.73;3.80;;;31.30;35.70;;;;;;5093679;28;20482;-55
2023/05/31 09:29:30;;;;;;;7.40;3.40;;;31.40;35.90;;;;;;5093524;28;20485;-55
2023/05/31 09:32:09;;;;;;;7.23;3.03;;;31.60;36.00;;;;;;5093233;28;20967;-55
2023/05/31 09:34:36;;;;;;;6.80;3.63;;;31.80;35.50;;;;;;5093514;28;20447;-55
2023/05/31 09:37:04;;;;;;;3.17;2.87;;;32.00;35.10;;;;;;5093600;28;20482;-55
2023/05/31 09:39:31;;;;;;;5.67;3.87;;;32.10;33.70;;;;;;5093539;28;20443;-55
2023/05/31 09:41:58;;;;;;;5.63;3.43;;;32.40;33.70;;;;;;5093205;28;20933;-55
2023/05/31 09:44:28;;;;;;;4.83;3.70;;;32.60;33.20;;;;;;5092880;28;20471;-55
2023/05/31 09:46:56;;;;;;;5.90;3.40;;;32.80;32.50;;;;;;5093427;28;20467;-55
2023/05/31 09:49:24;;;;;;;6.20;3.50;;;33.00;32.00;;;;;;5093922;28;20486;-55
2023/05/31 09:51:52;;;;;;;5.70;3.50;;;33.20;31.90;;;;;;5093362;28;20543;-55
2023/05/31 09:54:22;;;;;;;7.00;3.87;;;33.40;31.70;;;;;;5093295;28;20455;-56
2023/05/31 09:56:49;;;;;;;9.07;4.10;;;33.60;31.10;;;;;;5093234;28;20498;-55
2023/05/31 09:59:17;;;;;;;7.33;4.03;;;33.90;30.50;;;;;;5093270;28;20443;-55
2023/05/31 10:01:46;;;;;;;4.97;3.47;;;34.10;30.00;;;;;;5093277;28;20477;-56
2023/05/31 10:04:13;;;;;;;5.47;3.57;;;34.40;30.00;;;;;;5093247;28;20454;-56
2023/05/31 10:06:40;;;;;;;5.93;3.43;;;34.60;29.20;;;;;;5093276;28;20467;-56
2023/05/31 10:09:08;;;;;;;6.43;4.10;;;34.90;28.90;;;;;;5093216;28;20474;-56
2023/05/31 10:11:36;;;;;;;7.33;3.50;;;35.20;28.70;;;;;;5092910;28;20461;-56
2023/05/31 10:14:07;;;;;;;7.70;3.53;;;35.40;28.50;;;;;;5092844;28;20840;-56
2023/05/31 10:16:39;;;;;;;4.90;3.53;;;35.70;28.40;;;;;;5093082;28;20224;-56
2023/05/31 10:19:11;;;;;;;6.03;3.33;;;36.10;28.00;;;;;;5093149;28;20186;-56
2023/05/31 10:21:43;;;;;;;5.73;2.93;;;36.40;27.60;;;;;;5093074;28;20182;-56
2023/05/31 10:24:16;;;;;;;4.90;3.05;;;36.70;27.10;;;;;;5093293;28;20190;-56
2023/05/31 10:26:57;;;;;;;4.25;3.20;;;37.10;26.10;;;;;;5092989;28;20377;-56
2023/05/31 10:29:27;;;;;;;4.00;3.13;;;37.50;24.60;;;;;;5093029;28;20209;-56
2023/05/31 10:31:56;;;;;;;3.78;3.28;;;37.90;24.10;;;;;;5093040;28;20209;-56
2023/05/31 10:34:26;;;;;;;4.80;2.88;;;38.30;24.00;;;;;;5092983;28;20201;-56
2023/05/31 10:36:53;;;;;;;6.18;2.90;;;38.70;23.10;;;;;;5093305;28;20225;-56
2023/05/31 10:39:30;;;;;;;3.22;2.65;;;39.10;22.40;;;;;;5092998;28;20208;-56
2023/05/31 10:42:04;;;;;;;3.38;2.35;;;39.40;21.40;;;;;;5093027;28;20196;-56
2023/05/31 10:44:39;;;;;;;4.68;2.78;;;39.70;20.40;;;;;;5092936;28;20193;-56
2023/05/31 10:47:09;;;;;;;5.78;2.65;;;39.90;20.50;;;;;;5093692;28;20220;-56
2023/05/31 10:49:40;;;;;;;4.47;2.42;;;40.20;20.10;;;;;;5092775;28;20201;-56
2023/05/31 10:52:09;;;;;;;4.00;2.58;;;40.60;20.10;;;;;;5092867;28;20223;-56
2023/05/31 10:54:36;;;;;;;5.43;3.10;;;40.90;20.00;;;;;;5092742;28;20209;-56
2023/05/31 10:57:05;;;;;;;6.85;2.72;;;41.30;19.90;;;;;;5095588;28;20311;-56
2023/05/31 10:59:41;;;;;;;3.65;2.70;;;41.80;19.50;;;;;;5096372;28;20231;-56
2023/05/31 11:02:09;;;;;;;3.53;2.95;;;42.20;18.50;;;;;;5096477;28;20217;-56
2023/05/31 11:04:38;;;;;;;5.43;2.95;;;42.40;18.00;;;;;;5096427;28;20201;-56
2023/05/31 11:07:14;;;;;;;6.13;2.90;;;42.60;18.40;;;;;;5096126;28;20228;-56
2023/05/31 11:09:41;;;;;;;4.85;2.83;;;42.80;18.40;;;;;;5096326;28;20212;-56
2023/05/31 11:12:12;;;;;;;3.67;2.85;;;43.00;18.20;;;;;;5096251;28;20212;-56
2023/05/31 11:14:38;;;;;;;4.47;2.67;;;43.30;17.40;;;;;;5096321;28;20205;-56
2023/05/31 11:17:14;;;;;;;4.22;2.60;;;43.40;17.30;;;;;;5095686;28;20718;-56
2023/05/31 11:19:43;;;;;;;5.15;3.05;;;43.70;17.40;;;;;;5096578;28;20612;-56
2023/05/31 11:22:14;;;;;;;4.15;2.85;;;43.90;17.20;;;;;;5095985;28;20205;-56
2023/05/31 11:24:50;;;;;;;4.18;2.47;;;44.20;17.10;;;;;;5096061;28;20247;-56
2023/05/31 11:27:18;;;;;;;6.18;2.40;;;44.50;16.70;;;;;;5095507;28;20658;-56
2023/05/31 11:29:59;;;;;;;3.85;2.70;;;44.70;16.30;;;;;;5095695;28;20217;-56
2023/05/31 11:33:08;;;;;;;3.80;2.45;;;44.90;16.30;;;;;;5095653;28;20288;-56
2023/05/31 11:35:36;;;;;;;7.88;2.38;;;45.00;15.80;;;;;;5095135;28;20638;-57
2023/05/31 11:38:05;;;;;;;3.03;2.33;;;45.30;16.10;;;;;;5096191;28;20202;-57
2023/05/31 11:40:32;;;;;;;3.72;2.30;;;45.50;15.40;;;;;;5095616;28;20318;-57
2023/05/31 11:43:07;;;;;;;4.35;2.85;;;45.40;15.30;;;;;;5095040;28;20683;-57
2023/05/31 11:45:35;;;;;;;8.80;2.50;;;45.50;15.10;;;;;;5095512;28;20228;-56
2023/05/31 11:48:21;;;;;;;4.60;2.60;;;45.70;15.40;;;;;;5095538;28;20197;-56
2023/05/31 11:50:49;;;;;;;3.42;2.03;;;45.90;15.30;;;;;;5095019;28;20675;-57
2023/05/31 11:53:16;;;;;;;4.80;2.20;;;46.00;15.10;;;;;;5095462;28;20201;-57
2023/05/31 11:55:48;;;;;;;3.92;2.78;;;46.20;15.30;;;;;;5095370;28;20221;-57
2023/05/31 11:58:15;;;;;;;4.40;3.00;;;46.40;14.90;;;;;;5095234;28;20294;-57
2023/05/31 12:00:46;;;;;;;4.03;2.92;;;46.50;14.90;;;;;;5095511;28;20201;-57
2023/05/31 12:03:16;;;;;;;3.72;2.50;;;46.60;14.80;;;;;;5095200;28;20186;-57
2023/05/31 12:05:44;;;;;;;2.58;2.10;;;46.90;14.40;;;;;;5095184;28;20302;-57
2023/05/31 12:08:14;;;;;;;5.57;2.78;;;46.90;13.70;;;;;;5094545;28;20669;-56
2023/05/31 12:10:41;;;;;;;6.20;2.72;;;46.90;14.20;;;;;;5094901;28;20264;-57
2023/05/31 12:13:09;;;;;;;5.90;2.25;;;47.10;14.10;;;;;;5094942;28;20189;-58
2023/05/31 12:15:36;;;;;;;4.15;2.20;;;47.20;14.10;;;;;;5095389;28;20224;-57
2023/05/31 12:18:03;;;;;;;3.97;2.90;;;47.20;13.80;;;;;;5095683;28;20284;-57
2023/05/31 12:20:29;;;;;;;4.43;2.42;;;47.50;14.40;;;;;;5096041;28;20201;-57
2023/05/31 12:23:13;;;;;;;3.97;2.30;;;47.70;14.30;;;;;;5095464;28;20227;-57
2023/05/31 12:25:45;;;;;;;5.07;3.10;;;48.10;14.30;;;;;;5095625;28;20259;-59
2023/05/31 12:28:13;;;;;;;3.30;2.60;;;48.40;13.00;;;;;;5094668;28;20651;-57
2023/05/31 12:30:43;;;;;;;3.17;2.40;;;48.50;13.00;;;;;;5095948;28;20219;-57
2023/05/31 12:33:11;;;;;;;6.15;2.30;;;48.60;13.00;;;;;;5097011;28;20639;-57
2023/05/31 12:35:41;;;;;;;4.25;2.47;;;48.70;13.20;;;;;;5095198;28;20270;-57
2023/05/31 12:38:08;;;;;;;3.67;2.45;;;48.70;13.00;;;;;;5094345;28;20181;-57
2023/05/31 12:40:40;;;;;;;6.20;2.38;;;48.90;12.90;;;;;;5094544;28;20228;-57
2023/05/31 12:43:07;;;;;;;3.65;2.50;;;49.00;12.80;;;;;;5094585;28;20192;-57
2023/05/31 12:45:39;;;;;;;2.95;2.13;;;49.00;13.20;;;;;;5094877;28;20231;-57